Ernesto Cortissoz International Airport
SKBQ : now visible

Airfield :











YOU CAN JOIN US ON...

 
LOGIN :

Register | Disclaimer

   EN    FR    IT 

 









Legend :    VFR   Marginal VFR   IFR   Intensive IFR   Very Intensive IFR
Visi :
Ceiling :
>= 8 km
>= 3000ft
5 to 8 km
1000 to 3000 ft
1500m to 5 km
500 to 1000 ft
800 to 1500m
200 to 500 ft
< 800m
< 200 ft
Symbols :   Thunderstorms  Fog  Heavy snow  Heavy precipitations  Wind > 20 kt






- Airport Elevation : 98 ft
- IATA code : BAQ


SKBQ - Ernesto Cortissoz International

CURRENT METAR :
  • 182300Z 02007KT 330V050 9999 FEW015 29/24 Q1010 NOSIG

EXPIRED METARs :
  • 182200Z 03007KT 350V050 9999 FEW015 30/24 Q1010 NOSIG
  • 182100Z 02007KT 340V060 9999 SCT015 31/25 Q1010 NOSIG
  • 182000Z 02005KT 330V070 9999 SCT015 30/26 Q1010 NOSIG
  • 181900Z 04008KT 020V080 9999 SCT015 30/26 Q1011 NOSIG

TAF TAF SKBQ
Valid from the 18 at 18:00 until the 19 at 18:00 UTC


181630Z 1818/1918 02010KT 9999 FEW015
PROB40
TEMPO 1819/1822 TSRA FEW015CB
BECMG 1904/1906 VRB03KT
PROB40
TEMPO 1912/1916 TSRA FEW015CB
BECMG 1916/1918 03010KT TX33/1818Z TN26/1910Z
SKEC FIR / South America



MET'MAP, your aeronautical weather chart ! - Copyright ORBIFLY December 2007 - Disclaimer

ORBIFLY MET'MAP TEAM :

Programming & Development : Alexandra Zaïnal
Original concept : Baudouin d'Aumeries
Technical & hardware support : Manuel Goepfert
Assistance : Marc-Olivier Méhu




SOURCES & CREDITS :

   NOAA       Earth
Advisory